Time;durP1;ratioP1;P1;durP2;ratioP2;P2;SDS_P1;SDS_P2;PMS_P1;PMS_P2;Temp;Humidity;BMP_temperature;BMP_pressure;BME280_temperature;BME280_humidity;BME280_pressure;Samples;Min_cycle;Max_cycle;Signal;HPM_P1;HPM_P2
2022/10/24 00:01:25;;;;;;;3.85;2.50;;;;;;;;;;5010516;28;20030;-81
2022/10/24 00:03:53;;;;;;;5.85;2.85;;;;;;;;;;5011632;28;20038;-80
2022/10/24 00:06:21;;;;;;;5.07;2.95;;;;;;;;;;4974314;28;20286;-80
2022/10/24 00:08:48;;;;;;;8.75;2.85;;;;;;;;;;5009140;28;20034;-79
2022/10/24 00:11:20;;;;;;;5.95;2.60;;;;;;;;;;4978342;28;20084;-80
2022/10/24 00:13:49;;;;;;;9.00;3.00;;;;;;;;;;5008946;28;20038;-79
2022/10/24 00:16:16;;;;;;;3.53;2.72;;;;;;;;;;4985306;28;20038;-80
2022/10/24 00:18:44;;;;;;;5.65;2.60;;;;;;;;;;5013490;28;20048;-81
2022/10/24 00:21:11;;;;;;;8.18;3.17;;;;;;;;;;4990036;28;20034;-84
2022/10/24 00:23:39;;;;;;;4.70;2.78;;;;;;;;;;4986570;28;20496;-81
2022/10/24 00:26:06;;;;;;;6.50;2.92;;;;;;;;;;4986945;28;20057;-80
2022/10/24 00:28:34;;;;;;;7.40;2.92;;;;;;;;;;5009780;28;20057;-80
2022/10/24 00:31:02;;;;;;;6.80;3.10;;;;;;;;;;4993189;28;20046;-80
2022/10/24 00:33:30;;;;;;;4.05;2.63;;;;;;;;;;5009245;28;20360;-80
2022/10/24 00:35:57;;;;;;;8.70;3.47;;;;;;;;;;5004571;28;20172;-81
2022/10/24 00:38:24;;;;;;;9.52;4.18;;;;;;;;;;5002089;28;20065;-80
2022/10/24 00:40:52;;;;;;;4.18;3.40;;;;;;;;;;5014967;28;20133;-80
2022/10/24 00:43:21;;;;;;;3.90;3.60;;;;;;;;;;5000784;28;20084;-80
2022/10/24 00:45:59;;;;;;;6.50;3.55;;;;;;;;;;5011890;28;20056;-81
2022/10/24 00:48:38;;;;;;;9.43;3.40;;;;;;;;;;4995949;28;20053;-80
2022/10/24 00:51:14;;;;;;;4.10;3.67;;;;;;;;;;5008141;28;20046;-81
2022/10/24 00:53:43;;;;;;;8.02;3.00;;;;;;;;;;5005294;28;20444;-82
2022/10/24 00:56:12;;;;;;;5.60;3.60;;;;;;;;;;4982454;28;20049;-82
2022/10/24 00:58:41;;;;;;;5.82;3.42;;;;;;;;;;5011370;28;20041;-80
2022/10/24 01:01:11;;;;;;;8.88;3.42;;;;;;;;;;4997163;28;20066;-80
2022/10/24 01:03:39;;;;;;;6.00;4.85;;;;;;;;;;5007009;28;20207;-80
2022/10/24 01:06:10;;;;;;;5.57;4.78;;;;;;;;;;4981051;28;20054;-80
2022/10/24 01:08:44;;;;;;;6.03;3.72;;;;;;;;;;4986917;28;20030;-81
2022/10/24 01:11:26;;;;;;;8.20;3.45;;;;;;;;;;4963205;28;20081;-81
2022/10/24 01:13:54;;;;;;;8.95;3.40;;;;;;;;;;4996504;28;20084;-81
2022/10/24 01:16:27;;;;;;;5.88;3.60;;;;;;;;;;4995338;28;20112;-81
2022/10/24 01:19:02;;;;;;;7.70;3.90;;;;;;;;;;5010023;28;20080;-79
2022/10/24 01:21:35;;;;;;;9.85;3.13;;;;;;;;;;5004348;28;20097;-81
2022/10/24 01:24:14;;;;;;;4.15;3.50;;;;;;;;;;5013554;28;20052;-80
2022/10/24 01:26:42;;;;;;;5.03;3.30;;;;;;;;;;4977776;28;20053;-81
2022/10/24 01:29:28;;;;;;;4.32;3.47;;;;;;;;;;5009487;28;20452;-80
2022/10/24 01:32:19;;;;;;;7.85;3.33;;;;;;;;;;4995742;28;20046;-80
2022/10/24 01:34:50;;;;;;;6.93;3.60;;;;;;;;;;4994057;28;20064;-80
2022/10/24 01:37:20;;;;;;;5.43;3.77;;;;;;;;;;4992763;28;20125;-81
2022/10/24 01:39:49;;;;;;;6.38;3.55;;;;;;;;;;4981968;28;20494;-81
2022/10/24 01:42:18;;;;;;;10.15;3.88;;;;;;;;;;4997121;28;20064;-80
2022/10/24 01:44:48;;;;;;;5.90;3.40;;;;;;;;;;5001104;28;20064;-80
2022/10/24 01:47:22;;;;;;;6.78;3.58;;;;;;;;;;4993563;28;20077;-80
2022/10/24 01:49:54;;;;;;;7.63;3.15;;;;;;;;;;4992989;28;20049;-81
2022/10/24 01:52:21;;;;;;;;;;;;;;;;;;5008359;28;20053;-81
2022/10/24 01:54:50;;;;;;;6.85;3.70;;;;;;;;;;5008774;28;19929;-82
2022/10/24 01:57:18;;;;;;;7.05;3.58;;;;;;;;;;4985915;28;20054;-81
2022/10/24 01:59:47;;;;;;;7.60;3.58;;;;;;;;;;4988120;28;20198;-82
2022/10/24 02:02:27;;;;;;;3.38;3.13;;;;;;;;;;5002856;28;20057;-81
2022/10/24 02:05:01;;;;;;;6.55;3.78;;;;;;;;;;5011846;28;20305;-82
2022/10/24 02:07:29;;;;;;;7.55;3.85;;;;;;;;;;4997920;28;20042;-82
2022/10/24 02:10:00;;;;;;;4.38;3.90;;;;;;;;;;5014546;28;20045;-83
2022/10/24 02:12:28;;;;;;;11.75;4.18;;;;;;;;;;5009711;28;20077;-83
2022/10/24 02:14:59;;;;;;;6.32;3.65;;;;;;;;;;5017115;28;20053;-82
2022/10/24 02:17:27;;;;;;;8.35;4.10;;;;;;;;;;5007298;28;20106;-82
2022/10/24 02:20:00;;;;;;;9.05;3.53;;;;;;;;;;5015986;28;20056;-83
2022/10/24 02:22:30;;;;;;;9.43;4.28;;;;;;;;;;4978767;28;20083;-82
2022/10/24 02:25:01;;;;;;;10.00;4.18;;;;;;;;;;5011959;28;20046;-82
2022/10/24 02:27:32;;;;;;;5.40;4.03;;;;;;;;;;4992500;28;20523;-82
2022/10/24 02:30:06;;;;;;;6.30;4.03;;;;;;;;;;5014849;28;20116;-82
2022/10/24 02:32:36;;;;;;;5.78;3.78;;;;;;;;;;4993239;28;20065;-82
2022/10/24 02:35:04;;;;;;;8.73;4.47;;;;;;;;;;5010380;28;20050;-82
2022/10/24 02:37:33;;;;;;;7.65;4.60;;;;;;;;;;5006317;28;20076;-81
2022/10/24 02:40:01;;;;;;;9.63;4.70;;;;;;;;;;4999748;28;20379;-81
2022/10/24 02:42:29;;;;;;;11.50;4.90;;;;;;;;;;5001209;28;20551;-82
2022/10/24 02:44:57;;;;;;;8.75;4.55;;;;;;;;;;5024551;28;20492;-83
2022/10/24 02:47:25;;;;;;;9.20;5.00;;;;;;;;;;4995727;28;20100;-81
2022/10/24 02:49:53;;;;;;;8.30;4.70;;;;;;;;;;4978524;28;20061;-81
2022/10/24 02:52:22;;;;;;;8.60;4.70;;;;;;;;;;5012946;28;20042;-80
2022/10/24 02:54:50;;;;;;;8.10;4.85;;;;;;;;;;5015562;28;20350;-81
2022/10/24 02:57:17;;;;;;;6.05;4.47;;;;;;;;;;5012433;28;20084;-81
2022/10/24 02:59:45;;;;;;;9.10;4.70;;;;;;;;;;4995178;28;20543;-80
2022/10/24 03:02:12;;;;;;;9.63;4.38;;;;;;;;;;5010716;28;20455;-80
2022/10/24 03:04:39;;;;;;;6.75;4.43;;;;;;;;;;5012306;28;20046;-82
2022/10/24 03:07:07;;;;;;;5.60;4.38;;;;;;;;;;5011622;28;20046;-80
2022/10/24 03:09:34;;;;;;;7.63;4.63;;;;;;;;;;5011958;28;20050;-83
2022/10/24 03:12:02;;;;;;;10.23;4.75;;;;;;;;;;4998060;28;20234;-82
2022/10/24 03:14:30;;;;;;;12.85;5.32;;;;;;;;;;4995556;28;20050;-79
2022/10/24 03:16:57;;;;;;;8.02;4.88;;;;;;;;;;5008020;28;20076;-82
2022/10/24 03:19:24;;;;;;;9.77;5.15;;;;;;;;;;5008141;28;20038;-79
2022/10/24 03:21:52;;;;;;;8.93;5.28;;;;;;;;;;5016628;28;20107;-80
2022/10/24 03:24:19;;;;;;;8.13;5.60;;;;;;;;;;4992748;28;20229;-83
2022/10/24 03:27:06;;;;;;;9.45;5.50;;;;;;;;;;5009492;28;20101;-80
2022/10/24 03:29:34;;;;;;;11.20;5.55;;;;;;;;;;5009057;28;20100;-82
2022/10/24 03:32:01;;;;;;;7.97;5.03;;;;;;;;;;5006606;28;20069;-82
2022/10/24 03:34:28;;;;;;;9.05;5.70;;;;;;;;;;4991444;28;20042;-79
2022/10/24 03:36:56;;;;;;;9.70;4.80;;;;;;;;;;5008124;28;20091;-82
2022/10/24 03:39:23;;;;;;;7.53;4.97;;;;;;;;;;4990587;28;20045;-80
2022/10/24 03:41:51;;;;;;;4.78;4.28;;;;;;;;;;5008739;28;20042;-78
2022/10/24 03:44:18;;;;;;;7.53;4.82;;;;;;;;;;4998549;28;20084;-81
2022/10/24 03:46:46;;;;;;;10.25;5.45;;;;;;;;;;5008753;28;20160;-79
2022/10/24 03:49:13;;;;;;;10.23;5.68;;;;;;;;;;5008512;28;20065;-79
2022/10/24 03:51:40;;;;;;;8.18;5.72;;;;;;;;;;5007398;28;20046;-81
2022/10/24 03:54:08;;;;;;;8.38;5.20;;;;;;;;;;5008692;28;20042;-78
2022/10/24 03:56:35;;;;;;;8.50;5.40;;;;;;;;;;5009525;28;20504;-79
2022/10/24 03:59:03;;;;;;;8.52;5.47;;;;;;;;;;5015490;28;20038;-79
2022/10/24 04:01:30;;;;;;;12.35;6.32;;;;;;;;;;5014587;28;20149;-80
2022/10/24 04:03:57;;;;;;;8.80;5.60;;;;;;;;;;5012190;28;20042;-80
2022/10/24 04:06:25;;;;;;;10.63;5.53;;;;;;;;;;5016215;28;20069;-80
2022/10/24 04:08:52;;;;;;;7.32;5.68;;;;;;;;;;5008557;28;20053;-80
2022/10/24 04:11:19;;;;;;;13.27;5.30;;;;;;;;;;5026309;28;20041;-83
2022/10/24 04:13:54;;;;;;;9.80;5.25;;;;;;;;;;5001533;28;20046;-79
2022/10/24 04:16:22;;;;;;;9.93;5.90;;;;;;;;;;5004791;28;20411;-79
2022/10/24 04:18:50;;;;;;;11.63;6.25;;;;;;;;;;4986809;28;20049;-80
2022/10/24 04:21:18;;;;;;;9.40;5.57;;;;;;;;;;5013646;28;20105;-80
2022/10/24 04:23:54;;;;;;;11.75;5.68;;;;;;;;;;4987434;28;20522;-81
2022/10/24 04:26:35;;;;;;;13.38;6.03;;;;;;;;;;4967550;28;20500;-81
2022/10/24 04:29:02;;;;;;;12.63;6.57;;;;;;;;;;4999765;28;20692;-79
2022/10/24 04:31:29;;;;;;;8.43;5.95;;;;;;;;;;5004697;28;20034;-79
2022/10/24 04:33:57;;;;;;;12.70;6.53;;;;;;;;;;4999972;28;20134;-79
2022/10/24 04:36:24;;;;;;;12.70;6.43;;;;;;;;;;5004012;28;20034;-79
2022/10/24 04:38:52;;;;;;;11.30;7.40;;;;;;;;;;5006563;28;20100;-80
2022/10/24 04:41:19;;;;;;;7.90;5.75;;;;;;;;;;5006194;28;20129;-83
2022/10/24 04:43:46;;;;;;;8.25;5.88;;;;;;;;;;5001644;28;20049;-80
2022/10/24 04:46:13;;;;;;;10.00;6.80;;;;;;;;;;5004347;28;20057;-85
2022/10/24 04:48:41;;;;;;;9.38;7.35;;;;;;;;;;5008596;28;20042;-79
2022/10/24 04:51:08;;;;;;;18.85;7.25;;;;;;;;;;5015029;28;20105;-80
2022/10/24 04:53:35;;;;;;;9.48;6.13;;;;;;;;;;5017382;28;20131;-80
2022/10/24 04:56:03;;;;;;;12.25;6.53;;;;;;;;;;4995318;28;20145;-80
2022/10/24 04:58:30;;;;;;;9.73;6.43;;;;;;;;;;4973333;28;20056;-83
2022/10/24 05:00:58;;;;;;;9.90;6.05;;;;;;;;;;4996800;28;20049;-81
2022/10/24 05:03:25;;;;;;;12.57;7.22;;;;;;;;;;5009577;28;20041;-81
2022/10/24 05:05:52;;;;;;;12.10;6.65;;;;;;;;;;5006819;28;20046;-83
2022/10/24 05:08:20;;;;;;;10.98;6.18;;;;;;;;;;5004985;28;20038;-82
2022/10/24 05:10:47;;;;;;;10.98;6.50;;;;;;;;;;5089700;23;20136;-79
2022/10/24 05:13:14;;;;;;;14.77;7.10;;;;;;;;;;5012455;28;20064;-79
2022/10/24 05:15:42;;;;;;;13.10;7.07;;;;;;;;;;5026020;28;20069;-80
2022/10/24 05:18:10;;;;;;;16.23;6.90;;;;;;;;;;5009111;28;20040;-78
2022/10/24 05:20:37;;;;;;;10.95;7.38;;;;;;;;;;5006012;28;20026;-79
2022/10/24 05:23:05;;;;;;;16.25;10.57;;;;;;;;;;5014867;28;20026;-81
2022/10/24 05:25:32;;;;;;;12.35;8.60;;;;;;;;;;5013918;28;20041;-80
2022/10/24 05:27:59;;;;;;;13.40;8.13;;;;;;;;;;5036691;28;20105;-79
2022/10/24 05:30:27;;;;;;;14.88;7.65;;;;;;;;;;5009708;28;20077;-79
2022/10/24 05:32:54;;;;;;;14.77;8.15;;;;;;;;;;5014958;28;20041;-80
2022/10/24 05:35:22;;;;;;;13.27;7.32;;;;;;;;;;5014150;28;20066;-81
2022/10/24 05:37:49;;;;;;;16.17;7.93;;;;;;;;;;5015190;28;20517;-81
2022/10/24 05:40:17;;;;;;;14.20;8.80;;;;;;;;;;5010881;28;20069;-80
2022/10/24 05:42:44;;;;;;;19.67;8.55;;;;;;;;;;4990076;28;20491;-80
2022/10/24 05:45:12;;;;;;;11.23;8.25;;;;;;;;;;5009490;28;20045;-80
2022/10/24 05:47:39;;;;;;;17.67;8.82;;;;;;;;;;5003983;28;20041;-81
2022/10/24 05:50:07;;;;;;;16.13;8.35;;;;;;;;;;5007251;28;20844;-80
2022/10/24 05:52:35;;;;;;;15.02;9.13;;;;;;;;;;4987274;28;20040;-80
2022/10/24 05:55:06;;;;;;;12.05;7.57;;;;;;;;;;5003641;28;20042;-80
2022/10/24 05:57:36;;;;;;;12.02;8.23;;;;;;;;;;5007420;28;20562;-80
2022/10/24 06:00:06;;;;;;;13.38;8.52;;;;;;;;;;5001652;28;20034;-79
2022/10/24 06:02:38;;;;;;;12.18;8.48;;;;;;;;;;5005251;28;20044;-80
2022/10/24 06:05:07;;;;;;;17.25;8.70;;;;;;;;;;4984670;28;20038;-80
2022/10/24 06:07:34;;;;;;;14.40;7.68;;;;;;;;;;5003963;28;20046;-80
2022/10/24 06:10:02;;;;;;;12.48;7.57;;;;;;;;;;4986793;28;20106;-80
2022/10/24 06:12:29;;;;;;;14.35;8.18;;;;;;;;;;5007835;28;20101;-79
2022/10/24 06:14:57;;;;;;;14.70;9.02;;;;;;;;;;5005876;28;20065;-79
2022/10/24 06:17:25;;;;;;;12.57;8.50;;;;;;;;;;4988432;28;20125;-79
2022/10/24 06:19:53;;;;;;;11.65;7.57;;;;;;;;;;4988936;28;20038;-80
2022/10/24 06:22:23;;;;;;;14.80;8.80;;;;;;;;;;4998265;28;20396;-80
2022/10/24 06:24:50;;;;;;;18.50;11.73;;;;;;;;;;5086582;23;20049;-82
2022/10/24 06:27:18;;;;;;;16.65;10.02;;;;;;;;;;5024805;28;20053;-81
2022/10/24 06:29:45;;;;;;;14.02;7.80;;;;;;;;;;5024999;28;20049;-81
2022/10/24 06:32:12;;;;;;;12.98;8.50;;;;;;;;;;5024726;28;20042;-81
2022/10/24 06:34:40;;;;;;;16.48;8.63;;;;;;;;;;5025016;28;20111;-81
2022/10/24 06:37:07;;;;;;;13.48;9.10;;;;;;;;;;5021247;28;20730;-81
2022/10/24 06:39:35;;;;;;;14.00;9.30;;;;;;;;;;5018547;28;20049;-81
2022/10/24 06:42:03;;;;;;;16.52;10.85;;;;;;;;;;5025565;28;20067;-81
2022/10/24 06:44:30;;;;;;;13.77;8.25;;;;;;;;;;5028368;28;20054;-81
2022/10/24 06:46:58;;;;;;;17.98;9.95;;;;;;;;;;5029562;28;20084;-81
2022/10/24 06:49:25;;;;;;;16.27;8.88;;;;;;;;;;5027414;28;20887;-82
2022/10/24 06:51:53;;;;;;;12.07;8.20;;;;;;;;;;5030199;28;20050;-81
2022/10/24 06:54:20;;;;;;;16.48;10.45;;;;;;;;;;5011967;28;20033;-80
2022/10/24 06:56:51;;;;;;;17.23;10.55;;;;;;;;;;5032391;28;20073;-81
2022/10/24 06:59:18;;;;;;;16.15;9.07;;;;;;;;;;5036246;28;20072;-81
2022/10/24 07:01:46;;;;;;;14.07;8.43;;;;;;;;;;5031948;28;20083;-81
2022/10/24 07:04:14;;;;;;;12.85;8.70;;;;;;;;;;5029092;28;20630;-81
2022/10/24 07:06:41;;;;;;;17.05;9.98;;;;;;;;;;5042600;28;20034;-82
2022/10/24 07:09:10;;;;;;;14.60;8.48;;;;;;;;;;5029583;28;20513;-81
2022/10/24 07:11:41;;;;;;;18.05;9.75;;;;;;;;;;5025236;28;20051;-81
2022/10/24 07:14:09;;;;;;;15.90;8.27;;;;;;;;;;5005975;28;20133;-81
2022/10/24 07:16:36;;;;;;;15.48;8.68;;;;;;;;;;5025862;28;20069;-81
2022/10/24 07:19:04;;;;;;;17.73;8.10;;;;;;;;;;5042621;28;20057;-81
2022/10/24 07:21:32;;;;;;;13.40;7.78;;;;;;;;;;5046738;28;20061;-82
2022/10/24 07:24:01;;;;;;;13.70;9.48;;;;;;;;;;5029800;28;20061;-82
2022/10/24 07:26:29;;;;;;;16.73;9.90;;;;;;;;;;5042441;28;20034;-79
2022/10/24 07:28:59;;;;;;;17.50;10.50;;;;;;;;;;5024751;28;20095;-82
2022/10/24 07:31:33;;;;;;;14.90;10.82;;;;;;;;;;5038329;28;20479;-81
2022/10/24 07:34:01;;;;;;;21.48;13.05;;;;;;;;;;5024158;28;20063;-79
2022/10/24 07:36:29;;;;;;;22.83;14.65;;;;;;;;;;5042467;28;20061;-79
2022/10/24 07:38:57;;;;;;;17.42;11.40;;;;;;;;;;5021178;28;20048;-80
2022/10/24 07:41:26;;;;;;;23.00;12.80;;;;;;;;;;5020451;28;20041;-82
2022/10/24 07:44:03;;;;;;;17.15;11.93;;;;;;;;;;5023119;28;20043;-83
2022/10/24 07:46:31;;;;;;;17.77;12.38;;;;;;;;;;4995913;28;20099;-82
2022/10/24 07:49:00;;;;;;;16.50;10.73;;;;;;;;;;5029644;28;20041;-82
2022/10/24 07:51:30;;;;;;;14.48;8.80;;;;;;;;;;5027321;28;20402;-82
2022/10/24 07:53:58;;;;;;;12.15;8.60;;;;;;;;;;4994412;28;20052;-82
2022/10/24 07:56:26;;;;;;;19.17;10.20;;;;;;;;;;5006938;28;20350;-82
2022/10/24 07:58:55;;;;;;;14.98;9.68;;;;;;;;;;5029548;28;20049;-83
2022/10/24 08:01:24;;;;;;;12.25;8.25;;;;;;;;;;5024843;28;20049;-82
2022/10/24 08:03:51;;;;;;;17.35;11.02;;;;;;;;;;5045186;28;20064;-83
2022/10/24 08:06:28;;;;;;;16.42;10.80;;;;;;;;;;5024216;28;20153;-82
2022/10/24 08:08:56;;;;;;;17.50;10.38;;;;;;;;;;5025655;28;20682;-82
2022/10/24 08:11:24;;;;;;;19.83;10.93;;;;;;;;;;5030972;28;20162;-82
2022/10/24 08:13:53;;;;;;;18.13;10.10;;;;;;;;;;5032759;28;20045;-84
2022/10/24 08:16:24;;;;;;;12.75;8.73;;;;;;;;;;5032325;28;20041;-83
2022/10/24 08:18:52;;;;;;;16.08;9.73;;;;;;;;;;5029817;28;20049;-82
2022/10/24 08:21:21;;;;;;;18.10;9.20;;;;;;;;;;5020229;28;20407;-81
2022/10/24 08:23:50;;;;;;;13.38;9.15;;;;;;;;;;5025711;28;20049;-82
2022/10/24 08:26:19;;;;;;;17.38;9.77;;;;;;;;;;5032773;28;20046;-83
2022/10/24 08:28:46;;;;;;;14.60;8.60;;;;;;;;;;5023851;28;20141;-83
2022/10/24 08:31:16;;;;;;;17.83;10.35;;;;;;;;;;5028623;28;20410;-83
2022/10/24 08:33:44;;;;;;;18.27;11.15;;;;;;;;;;5029001;28;20065;-82
2022/10/24 08:36:16;;;;;;;23.73;11.90;;;;;;;;;;5029152;28;20569;-81
2022/10/24 08:38:44;;;;;;;22.95;12.48;;;;;;;;;;5037234;28;20069;-82
2022/10/24 08:41:18;;;;;;;24.40;12.45;;;;;;;;;;4997718;28;20559;-83
2022/10/24 08:43:45;;;;;;;20.58;11.05;;;;;;;;;;5010979;28;20057;-81
2022/10/24 08:46:27;;;;;;;21.42;11.77;;;;;;;;;;5020744;28;20050;-83
2022/10/24 08:49:02;;;;;;;19.23;13.02;;;;;;;;;;5020873;28;20103;-83
2022/10/24 08:51:35;;;;;;;19.73;11.35;;;;;;;;;;5028425;28;20041;-83
2022/10/24 08:54:03;;;;;;;21.40;11.52;;;;;;;;;;5029849;28;20040;-81
2022/10/24 08:56:32;;;;;;;24.20;12.88;;;;;;;;;;5025998;28;20316;-83
2022/10/24 08:59:01;;;;;;;22.92;11.80;;;;;;;;;;5026903;28;20849;-85
2022/10/24 09:01:44;;;;;;;24.92;13.13;;;;;;;;;;5026591;28;20069;-82
2022/10/24 09:04:13;;;;;;;29.48;14.02;;;;;;;;;;5044932;28;20029;-82
2022/10/24 09:06:41;;;;;;;25.42;13.13;;;;;;;;;;5027774;28;20124;-83
2022/10/24 09:09:08;;;;;;;26.02;13.27;;;;;;;;;;5028077;28;20504;-82
2022/10/24 09:11:42;;;;;;;22.25;12.00;;;;;;;;;;5029242;28;20044;-83
2022/10/24 09:14:13;;;;;;;30.52;14.95;;;;;;;;;;5027249;28;20063;-82
2022/10/24 09:16:41;;;;;;;;;;;;;;;;;;5027668;28;20121;-83
2022/10/24 09:19:14;;;;;;;19.80;11.68;;;;;;;;;;5024395;28;19925;-83
2022/10/24 09:21:42;;;;;;;25.55;14.45;;;;;;;;;;5000958;28;20073;-82
2022/10/24 09:24:17;;;;;;;25.02;12.68;;;;;;;;;;5017824;28;20052;-82
2022/10/24 09:26:45;;;;;;;34.83;16.27;;;;;;;;;;5027332;28;20065;-82
2022/10/24 09:29:12;;;;;;;32.53;14.65;;;;;;;;;;5022424;28;20041;-83
2022/10/24 09:31:40;;;;;;;28.27;15.15;;;;;;;;;;5041243;28;20034;-83
2022/10/24 09:34:09;;;;;;;28.88;16.05;;;;;;;;;;5026609;28;20033;-82
2022/10/24 09:36:39;;;;;;;33.97;17.90;;;;;;;;;;5026485;28;20073;-82
2022/10/24 09:39:23;;;;;;;28.42;15.57;;;;;;;;;;5026578;28;20052;-82
2022/10/24 09:41:50;;;;;;;29.45;15.18;;;;;;;;;;5027272;28;20077;-83
2022/10/24 09:44:29;;;;;;;27.35;14.98;;;;;;;;;;5023809;28;20579;-82
2022/10/24 09:46:57;;;;;;;29.80;15.52;;;;;;;;;;5025390;28;20054;-82
2022/10/24 09:49:30;;;;;;;25.45;12.98;;;;;;;;;;5035162;28;20042;-82
2022/10/24 09:52:18;;;;;;;27.38;13.10;;;;;;;;;;5026229;28;20042;-83
2022/10/24 09:54:46;;;;;;;21.60;13.05;;;;;;;;;;5027269;28;20049;-83
2022/10/24 09:57:16;;;;;;;26.25;13.30;;;;;;;;;;5026286;28;20228;-83
2022/10/24 09:59:44;;;;;;;23.02;13.27;;;;;;;;;;5027656;28;20041;-82
2022/10/24 10:02:18;;;;;;;24.30;14.15;;;;;;;;;;5019367;28;20099;-83
2022/10/24 10:04:48;;;;;;;27.30;16.55;;;;;;;;;;5024771;28;20128;-83
2022/10/24 10:07:25;;;;;;;28.98;16.63;;;;;;;;;;5026475;28;20197;-82
2022/10/24 10:09:54;;;;;;;31.70;16.73;;;;;;;;;;5018179;28;20064;-81
2022/10/24 10:12:34;;;;;;;25.07;14.00;;;;;;;;;;5022136;28;20691;-81
2022/10/24 10:15:03;;;;;;;22.02;12.38;;;;;;;;;;5027702;28;20047;-81
2022/10/24 10:17:31;;;;;;;24.25;14.38;;;;;;;;;;5020115;28;20136;-81
2022/10/24 10:19:59;;;;;;;23.73;13.23;;;;;;;;;;5017586;28;20049;-80
2022/10/24 10:22:31;;;;;;;28.48;14.80;;;;;;;;;;4992132;28;20045;-80
2022/10/24 10:24:58;;;;;;;;;;;;;;;;;;5013157;28;20144;-80
2022/10/24 10:27:29;;;;;;;31.02;14.82;;;;;;;;;;5029901;28;20012;-79
2022/10/24 10:30:13;;;;;;;29.85;16.08;;;;;;;;;;5043428;28;20046;-79
2022/10/24 10:32:46;;;;;;;26.25;14.10;;;;;;;;;;5024196;28;20437;-79
2022/10/24 10:35:18;;;;;;;31.83;14.43;;;;;;;;;;5029711;28;20096;-80
2022/10/24 10:37:45;;;;;;;;;;;;;;;;;;5029102;28;20139;-79
2022/10/24 10:40:14;;;;;;;20.10;12.13;;;;;;;;;;5046620;28;19932;-79
2022/10/24 10:42:49;;;;;;;37.38;16.27;;;;;;;;;;5027877;28;20033;-79
2022/10/24 10:45:34;;;;;;;38.88;17.98;;;;;;;;;;5027786;28;20163;-80
2022/10/24 10:48:01;;;;;;;36.95;18.25;;;;;;;;;;5027062;28;20107;-80
2022/10/24 10:50:37;;;;;;;37.30;17.67;;;;;;;;;;5029229;28;20136;-80
2022/10/24 10:53:16;;;;;;;31.05;15.60;;;;;;;;;;5029373;28;21077;-80
2022/10/24 10:55:48;;;;;;;28.25;15.52;;;;;;;;;;5028287;28;20033;-80
2022/10/24 10:58:30;;;;;;;40.40;17.90;;;;;;;;;;5030325;28;20510;-79
2022/10/24 11:01:16;;;;;;;35.58;16.77;;;;;;;;;;5028437;28;20128;-79
2022/10/24 11:03:53;;;;;;;35.33;17.02;;;;;;;;;;5029608;28;20050;-79
2022/10/24 11:06:31;;;;;;;41.83;16.65;;;;;;;;;;5030131;28;20045;-79
2022/10/24 11:09:15;;;;;;;34.45;18.13;;;;;;;;;;5030134;28;20042;-80
2022/10/24 11:11:46;;;;;;;29.15;15.13;;;;;;;;;;5030194;28;20156;-80
2022/10/24 11:14:28;;;;;;;24.20;13.90;;;;;;;;;;5026270;28;20498;-79
2022/10/24 11:16:57;;;;;;;32.15;15.85;;;;;;;;;;5031506;28;20037;-80
2022/10/24 11:19:40;;;;;;;34.70;16.33;;;;;;;;;;5034194;28;20123;-79
2022/10/24 11:22:09;;;;;;;31.45;15.40;;;;;;;;;;5047962;28;20068;-80
2022/10/24 11:24:57;;;;;;;17.02;11.00;;;;;;;;;;5030934;28;20132;-80
2022/10/24 11:27:27;;;;;;;27.75;14.10;;;;;;;;;;5029156;28;20086;-79
2022/10/24 11:29:58;;;;;;;19.70;11.90;;;;;;;;;;5045050;28;20037;-80
2022/10/24 11:32:32;;;;;;;26.87;13.30;;;;;;;;;;5035897;28;20063;-80
2022/10/24 11:34:59;;;;;;;27.10;14.00;;;;;;;;;;5032430;28;20065;-80
2022/10/24 11:37:35;;;;;;;22.65;12.02;;;;;;;;;;5033833;28;20104;-80
2022/10/24 11:40:05;;;;;;;16.80;10.57;;;;;;;;;;5032798;28;20046;-80
2022/10/24 11:42:32;;;;;;;24.50;12.18;;;;;;;;;;5027106;28;20045;-80
2022/10/24 11:45:20;;;;;;;23.98;12.40;;;;;;;;;;5026939;28;20041;-80
2022/10/24 11:48:09;;;;;;;25.98;12.88;;;;;;;;;;5032798;28;20038;-80
2022/10/24 11:50:49;;;;;;;20.48;10.95;;;;;;;;;;5026087;28;20041;-80
2022/10/24 11:53:39;;;;;;;25.90;11.90;;;;;;;;;;5027427;28;20038;-80
2022/10/24 11:56:29;;;;;;;22.95;11.48;;;;;;;;;;5018854;28;20048;-80
2022/10/24 11:59:01;;;;;;;23.95;12.13;;;;;;;;;;5031168;28;20041;-80
2022/10/24 12:01:34;;;;;;;24.02;12.68;;;;;;;;;;5027556;28;20084;-80
2022/10/24 12:04:20;;;;;;;25.25;12.25;;;;;;;;;;5027955;28;20069;-80
2022/10/24 12:07:06;;;;;;;24.10;12.05;;;;;;;;;;5026613;28;20045;-80
2022/10/24 12:09:44;;;;;;;19.13;10.27;;;;;;;;;;5028192;28;20068;-80
2022/10/24 12:12:19;;;;;;;19.30;11.02;;;;;;;;;;5030216;28;20104;-80
2022/10/24 12:15:05;;;;;;;19.90;10.32;;;;;;;;;;5031927;28;20045;-80
2022/10/24 12:17:44;;;;;;;22.58;11.50;;;;;;;;;;5027069;28;20410;-80
2022/10/24 12:20:14;;;;;;;28.20;13.43;;;;;;;;;;5029732;28;20494;-80
2022/10/24 12:22:43;;;;;;;22.77;11.82;;;;;;;;;;5043818;28;20123;-80
2022/10/24 12:25:14;;;;;;;22.40;11.70;;;;;;;;;;5058181;23;20050;-76
2022/10/24 12:27:41;;;;;;;25.40;12.25;;;;;;;;;;4979634;28;20648;-77
2022/10/24 12:30:08;;;;;;;21.98;12.30;;;;;;;;;;4982721;28;20065;-75
2022/10/24 12:32:40;;;;;;;19.17;9.85;;;;;;;;;;4977938;28;20057;-75
2022/10/24 12:35:07;;;;;;;;;;;;;;;;;;4979327;28;20038;-75
2022/10/24 12:37:55;;;;;;;22.73;12.02;;;;;;;;;;4985907;28;19922;-75
2022/10/24 12:40:41;;;;;;;32.80;12.18;;;;;;;;;;4980646;28;20739;-77
2022/10/24 12:43:14;;;;;;;25.88;11.20;;;;;;;;;;4980467;28;20073;-76
2022/10/24 12:45:41;;;;;;;23.10;11.80;;;;;;;;;;4982152;28;20564;-75
2022/10/24 12:48:14;;;;;;;21.92;12.35;;;;;;;;;;4980518;28;20042;-77
2022/10/24 12:50:41;;;;;;;22.67;11.27;;;;;;;;;;4978819;28;20063;-76
2022/10/24 12:53:18;;;;;;;19.88;12.20;;;;;;;;;;4976926;28;20504;-76
2022/10/24 12:55:48;;;;;;;15.93;9.98;;;;;;;;;;4978799;28;20419;-76
2022/10/24 12:58:23;;;;;;;16.63;10.20;;;;;;;;;;4977194;28;20577;-76
2022/10/24 13:00:58;;;;;;;19.02;10.85;;;;;;;;;;4984531;28;20038;-79
2022/10/24 13:03:38;;;;;;;24.00;17.83;;;;;;;;;;4987656;28;20038;-75
2022/10/24 13:06:14;;;;;;;24.85;13.05;;;;;;;;;;4983142;28;20080;-75
2022/10/24 13:08:41;;;;;;;28.08;12.38;;;;;;;;;;4985678;28;20108;-76
2022/10/24 13:11:20;;;;;;;28.48;13.13;;;;;;;;;;4996707;28;20326;-75
2022/10/24 13:14:04;;;;;;;21.30;10.98;;;;;;;;;;4983496;28;20105;-75
2022/10/24 13:16:31;;;;;;;22.08;10.90;;;;;;;;;;4978522;28;20050;-75
2022/10/24 13:19:02;;;;;;;21.63;12.32;;;;;;;;;;4975017;28;20070;-75
2022/10/24 13:21:34;;;;;;;27.98;12.57;;;;;;;;;;4972008;28;20058;-75
2022/10/24 13:24:16;;;;;;;27.17;11.63;;;;;;;;;;4999491;28;20161;-76
2022/10/24 13:26:50;;;;;;;16.10;8.73;;;;;;;;;;4984449;28;20050;-77
2022/10/24 13:29:20;;;;;;;14.85;8.07;;;;;;;;;;4968677;28;20097;-78
2022/10/24 13:31:48;;;;;;;18.58;9.85;;;;;;;;;;4966815;28;20047;-76
2022/10/24 13:34:17;;;;;;;15.52;8.77;;;;;;;;;;4973553;28;20046;-76
2022/10/24 13:36:45;;;;;;;20.02;9.38;;;;;;;;;;4979869;28;20062;-75
2022/10/24 13:39:17;;;;;;;20.00;10.13;;;;;;;;;;4974956;28;20081;-78
2022/10/24 13:41:49;;;;;;;19.27;9.88;;;;;;;;;;4973565;28;20101;-75
2022/10/24 13:44:16;;;;;;;;;;;;;;;;;;4978193;28;20518;-75
2022/10/24 13:46:53;;;;;;;17.55;8.73;;;;;;;;;;4978450;28;20299;-77
2022/10/24 13:49:23;;;;;;;22.85;9.52;;;;;;;;;;4978094;28;20064;-77
2022/10/24 13:51:54;;;;;;;19.35;9.52;;;;;;;;;;4977756;28;20046;-76
2022/10/24 13:54:30;;;;;;;16.80;9.23;;;;;;;;;;4979899;28;20496;-76
2022/10/24 13:56:58;;;;;;;19.98;9.35;;;;;;;;;;4978574;28;20043;-76
2022/10/24 13:59:36;;;;;;;20.65;9.38;;;;;;;;;;4975510;28;20514;-78
2022/10/24 14:02:05;;;;;;;20.48;9.70;;;;;;;;;;4969013;28;20058;-75
2022/10/24 14:04:34;;;;;;;16.88;9.45;;;;;;;;;;4971319;28;20073;-76
2022/10/24 14:07:03;;;;;;;14.43;8.80;;;;;;;;;;4976828;28;20442;-76
2022/10/24 14:09:37;;;;;;;19.38;8.60;;;;;;;;;;4981197;28;20046;-76
2022/10/24 14:12:05;;;;;;;15.50;8.05;;;;;;;;;;4966826;28;20105;-79
2022/10/24 14:14:35;;;;;;;14.55;7.60;;;;;;;;;;4987393;28;20060;-77
2022/10/24 14:17:20;;;;;;;18.40;7.80;;;;;;;;;;4982822;28;20049;-76
2022/10/24 14:19:54;;;;;;;19.55;8.20;;;;;;;;;;4978207;28;20519;-77
2022/10/24 14:22:21;;;;;;;;;;;;;;;;;;4985358;28;20042;-76
2022/10/24 14:24:49;;;;;;;17.38;7.43;;;;;;;;;;4983366;28;19926;-77
2022/10/24 14:27:18;;;;;;;18.45;8.32;;;;;;;;;;4984032;28;20034;-78
2022/10/24 14:29:59;;;;;;;17.77;8.85;;;;;;;;;;4975292;28;20038;-77
2022/10/24 14:32:28;;;;;;;17.05;8.52;;;;;;;;;;4979742;28;20504;-77
2022/10/24 14:34:56;;;;;;;23.08;9.88;;;;;;;;;;4975935;28;20055;-77
2022/10/24 14:37:34;;;;;;;15.57;8.43;;;;;;;;;;4968909;28;20170;-77
2022/10/24 14:40:02;;;;;;;19.33;11.82;;;;;;;;;;4980833;28;20097;-78
2022/10/24 14:42:30;;;;;;;33.15;14.30;;;;;;;;;;4979410;28;20042;-77
2022/10/24 14:44:58;;;;;;;22.02;13.90;;;;;;;;;;4977424;28;20355;-78
2022/10/24 14:47:37;;;;;;;23.90;12.82;;;;;;;;;;4981087;28;20049;-76
2022/10/24 14:50:25;;;;;;;35.85;16.75;;;;;;;;;;4970845;28;20265;-77
2022/10/24 14:52:52;;;;;;;21.33;10.90;;;;;;;;;;4978495;28;20077;-78